Time;durP1;ratioP1;P1;durP2;ratioP2;P2;SDS_P1;SDS_P2;PMS_P1;PMS_P2;Temp;Humidity;BMP_temperature;BMP_pressure;BME280_temperature;BME280_humidity;BME280_pressure;Samples;Min_cycle;Max_cycle;Signal;HPM_P1;HPM_P2
2023/12/03 00:02:29;;;;;;;;;36.25;25.00;;;;;-0.70;60.73;98937.44;5152369;27;8922;-74
2023/12/03 00:04:58;;;;;;;;;24.25;22.00;;;;;-0.70;61.27;98934.00;5151955;27;8921;-73
2023/12/03 00:07:30;;;;;;;;;30.75;29.25;;;;;-0.71;61.78;98942.59;5151903;27;8871;-76
2023/12/03 00:09:59;;;;;;;;;28.00;20.50;;;;;-0.77;62.40;98943.34;5133610;27;8833;-74
2023/12/03 00:12:29;;;;;;;;;31.25;29.00;;;;;-0.86;63.31;98945.81;5152162;27;8967;-73
2023/12/03 00:14:58;;;;;;;;;26.25;22.00;;;;;-0.97;64.46;98960.28;5133315;27;8893;-73
2023/12/03 00:17:28;;;;;;;;;16.00;14.50;;;;;-1.48;62.14;98972.28;5152051;27;8841;-76
2023/12/03 00:19:57;;;;;;;;;19.00;19.00;;;;;-1.25;60.21;98964.09;5133700;27;8833;-72
2023/12/03 00:22:26;;;;;;;;;21.50;21.50;;;;;-1.22;60.55;98974.44;5130021;27;8834;-72
2023/12/03 00:24:56;;;;;;;;;22.25;17.00;;;;;-1.15;59.94;98987.47;5131276;27;8850;-73
2023/12/03 00:27:25;;;;;;;;;24.50;21.00;;;;;-0.98;59.18;98994.63;5131417;27;8870;-74
2023/12/03 00:29:54;;;;;;;;;26.75;23.75;;;;;-0.90;57.95;98993.94;5131125;27;8869;-73
2023/12/03 00:32:25;;;;;;;;;22.25;21.00;;;;;-0.86;58.33;99002.59;5130977;27;8861;-73
2023/12/03 00:34:53;;;;;;;;;18.00;17.75;;;;;-1.17;58.81;99020.09;5131067;27;8838;-73
2023/12/03 00:37:23;;;;;;;;;20.67;18.00;;;;;-0.94;58.25;99025.69;5130981;27;8873;-78
2023/12/03 00:39:51;;;;;;;;;28.25;28.25;;;;;-1.04;58.73;99013.44;5129722;27;8866;-74
2023/12/03 00:42:22;;;;;;;;;19.00;17.75;;;;;-0.98;58.50;99008.41;5095222;27;8831;-75
2023/12/03 00:44:51;;;;;;;;;24.50;19.25;;;;;-0.84;57.49;99024.13;5131084;27;8980;-75
2023/12/03 00:47:20;;;;;;;;;22.50;21.50;;;;;-0.97;56.67;99038.53;5079491;27;8842;-71
2023/12/03 00:49:49;;;;;;;;;25.25;17.75;;;;;-0.77;55.70;99051.75;5130230;27;8975;-73
2023/12/03 00:52:18;;;;;;;;;20.25;18.50;;;;;-0.88;56.20;99037.81;5129545;27;8846;-73
2023/12/03 00:54:47;;;;;;;;;24.75;19.75;;;;;-0.84;56.01;99042.19;5130373;27;8859;-73
2023/12/03 00:57:16;;;;;;;;;19.50;18.00;;;;;-0.85;56.46;99044.75;5130308;27;8866;-73
2023/12/03 00:59:46;;;;;;;;;18.75;17.75;;;;;-0.64;56.17;99062.28;5130561;27;8983;-76
2023/12/03 01:02:15;;;;;;;;;22.00;20.50;;;;;-0.71;56.10;99072.53;5130339;27;8854;-75
2023/12/03 01:04:44;;;;;;;;;17.50;17.00;;;;;-0.74;55.33;99079.34;5110893;27;8846;-72
2023/12/03 01:07:13;;;;;;;;;22.75;22.50;;;;;-0.61;55.72;99065.78;5128496;27;8887;-73
2023/12/03 01:09:42;;;;;;;;;13.80;13.00;;;;;-0.94;56.63;99066.06;5130632;27;8953;-73
2023/12/03 01:12:11;;;;;;;;;21.25;17.25;;;;;-0.59;56.13;99076.16;5110996;27;8823;-73
2023/12/03 01:14:40;;;;;;;;;22.75;18.50;;;;;-0.75;56.08;99080.16;5111883;27;8835;-75
2023/12/03 01:17:10;;;;;;;;;23.25;20.00;;;;;-0.90;56.73;99070.44;5129902;27;8891;-73
2023/12/03 01:19:39;;;;;;;;;17.50;17.25;;;;;-0.96;55.76;99089.25;5128459;27;8855;-76
2023/12/03 01:22:09;;;;;;;;;20.50;19.50;;;;;-0.71;55.21;99093.16;5142675;27;8839;-72
2023/12/03 01:24:37;;;;;;;;;23.75;22.00;;;;;-0.73;55.93;99099.13;5097728;27;8841;-73
2023/12/03 01:27:06;;;;;;;;;20.20;19.60;;;;;-0.88;55.86;99096.28;5097213;27;9641;-73
2023/12/03 01:29:35;;;;;;;;;18.50;18.50;;;;;-0.65;55.83;99094.97;5150521;27;8917;-73
2023/12/03 01:32:05;;;;;;;;;18.00;18.00;;;;;-0.66;55.60;99102.69;5150833;27;8855;-76
2023/12/03 01:34:35;;;;;;;;;24.25;20.50;;;;;-0.88;56.05;99104.00;5150569;27;8845;-72
2023/12/03 01:37:05;;;;;;;;;17.20;17.20;;;;;-0.76;56.72;99112.00;5150349;27;8853;-73
2023/12/03 01:39:33;;;;;;;;;23.75;22.25;;;;;-0.99;57.33;99115.03;5097775;27;8888;-73
2023/12/03 01:42:03;;;;;;;;;21.00;20.50;;;;;-0.97;57.79;99115.91;5150423;27;8825;-73
2023/12/03 01:44:32;;;;;;;;;24.25;20.50;;;;;-0.71;57.90;99120.66;5150216;27;8955;-72
2023/12/03 01:47:02;;;;;;;;;25.50;23.00;;;;;-0.57;58.04;99115.75;5149878;27;8952;-74
2023/12/03 01:49:32;;;;;;;;;29.00;23.50;;;;;-0.95;60.30;99110.78;5150128;27;8857;-73
2023/12/03 01:52:03;;;;;;;;;22.50;21.00;;;;;-0.97;60.89;99113.34;5088881;28;8854;-72
2023/12/03 01:54:36;;;;;;;;;22.25;18.00;;;;;-0.73;60.48;99123.25;5106275;28;8843;-72
2023/12/03 01:57:05;;;;;;;;;26.25;24.25;;;;;-0.72;62.21;99132.72;5106101;28;8855;-72
2023/12/03 01:59:34;;;;;;;;;27.25;26.25;;;;;-0.88;63.57;99135.88;5106516;28;8990;-73
2023/12/03 02:02:04;;;;;;;;;31.50;29.75;;;;;-0.93;65.69;99147.81;5089475;28;9577;-75
2023/12/03 02:04:33;;;;;;;;;24.00;22.75;;;;;-0.94;66.20;99135.72;5089158;28;8847;-72
2023/12/03 02:07:04;;;;;;;;;37.75;33.00;;;;;-0.94;67.34;99131.47;5105899;28;8917;-73
2023/12/03 02:09:33;;;;;;;;;30.50;28.25;;;;;-1.07;68.74;99147.53;5106086;28;8840;-72
2023/12/03 02:12:03;;;;;;;;;34.25;29.75;;;;;-1.21;68.60;99152.41;5072794;28;9541;-73
2023/12/03 02:14:31;;;;;;;;;26.00;24.25;;;;;-1.36;67.71;99167.56;5106297;28;8913;-72
2023/12/03 02:17:01;;;;;;;;;42.50;33.75;;;;;-1.26;69.11;99160.91;5106093;28;9557;-73
2023/12/03 02:19:29;;;;;;;;;26.25;22.75;;;;;-1.22;70.12;99178.16;5105807;28;8871;-73
2023/12/03 02:21:58;;;;;;;;;31.50;29.25;;;;;-1.03;69.28;99166.50;5105862;28;8944;-72
2023/12/03 02:24:29;;;;;;;;;33.75;29.75;;;;;-1.10;69.85;99186.16;5149300;27;8956;-73
2023/12/03 02:26:58;;;;;;;;;31.00;27.25;;;;;-0.97;70.08;99180.41;5097000;27;8844;-73
2023/12/03 02:29:27;;;;;;;;;33.25;31.00;;;;;-1.08;69.58;99192.22;5149783;27;8871;-72
2023/12/03 02:31:56;;;;;;;;;28.50;27.00;;;;;-1.20;70.33;99199.69;5149751;27;8860;-73
2023/12/03 02:34:25;;;;;;;;;31.25;29.50;;;;;-0.95;69.39;99201.09;5097077;27;8856;-72
2023/12/03 02:36:54;;;;;;;;;28.25;24.25;;;;;-0.72;67.97;99201.53;5149493;27;8844;-75
2023/12/03 02:39:23;;;;;;;;;24.00;23.25;;;;;-1.02;69.29;99212.13;5095978;27;8952;-72
2023/12/03 02:41:53;;;;;;;;;31.25;29.00;;;;;-0.93;68.96;99220.91;5149714;27;8814;-74
2023/12/03 02:44:22;;;;;;;;;30.25;28.50;;;;;-0.77;68.34;99216.91;5149457;27;8875;-74
2023/12/03 02:46:51;;;;;;;;;29.50;26.75;;;;;-0.86;68.56;99245.16;5149732;27;8929;-73
2023/12/03 02:49:20;;;;;;;;;29.50;27.50;;;;;-0.78;68.58;99251.31;5133444;27;8856;-73
2023/12/03 02:51:49;;;;;;;;;30.75;29.00;;;;;-0.39;67.00;99245.19;5100742;27;8845;-73
2023/12/03 02:54:18;;;;;;;;;33.00;28.75;;;;;-0.10;66.07;99231.91;5153164;27;8867;-74
2023/12/03 02:56:47;;;;;;;;;26.75;24.25;;;;;-0.33;66.65;99224.63;5153241;27;8818;-75
2023/12/03 02:59:17;;;;;;;;;28.25;25.25;;;;;-0.76;67.97;99223.81;5152932;27;8849;-74
2023/12/03 03:01:46;;;;;;;;;30.00;26.75;;;;;-0.96;68.23;99236.31;5134368;27;8841;-73
2023/12/03 03:04:15;;;;;;;;;30.00;26.75;;;;;-0.48;66.13;99226.94;5153015;27;8837;-74
2023/12/03 03:06:44;;;;;;;;;32.00;31.25;;;;;-0.64;67.34;99227.50;5153129;27;8837;-73
2023/12/03 03:09:13;;;;;;;;;31.75;25.25;;;;;-0.24;65.82;99236.81;5134316;27;8849;-74
2023/12/03 03:11:42;;;;;;;;;28.25;24.50;;;;;-0.27;66.03;99246.25;5152686;27;8844;-75
2023/12/03 03:14:11;;;;;;;;;24.00;24.00;;;;;-0.56;66.50;99244.88;5152846;27;8845;-74
2023/12/03 03:16:41;;;;;;;;;23.00;23.00;;;;;-0.56;66.72;99257.78;5152816;27;8944;-72
2023/12/03 03:19:10;;;;;;;;;25.00;21.50;;;;;-0.46;66.99;99255.34;5152856;27;8920;-73
2023/12/03 03:21:39;;;;;;;;;28.25;25.50;;;;;-0.19;65.51;99260.16;5152953;27;8857;-73
2023/12/03 03:24:08;;;;;;;;;28.00;23.25;;;;;-0.17;65.32;99268.81;5099679;27;8837;-72
2023/12/03 03:26:39;;;;;;;;;28.75;22.25;;;;;0.02;64.70;99276.03;5066075;27;8856;-72
2023/12/03 03:29:08;;;;;;;;;24.50;18.75;;;;;0.39;63.20;99289.59;5152434;27;8849;-72
2023/12/03 03:31:37;;;;;;;;;24.75;23.25;;;;;0.33;63.33;99286.91;5152403;27;8944;-73
2023/12/03 03:34:08;;;;;;;;;28.75;25.25;;;;;0.51;62.84;99304.44;5117037;27;8841;-72
2023/12/03 03:36:38;;;;;;;;;26.75;26.50;;;;;0.12;64.52;99313.25;5100080;27;8899;-72
2023/12/03 03:39:07;;;;;;;;;27.00;24.75;;;;;0.18;64.23;99313.38;5099526;27;8853;-72
2023/12/03 03:41:36;;;;;;;;;26.00;22.00;;;;;0.03;64.71;99313.97;5152254;27;8833;-75
2023/12/03 03:44:05;;;;;;;;;28.75;22.25;;;;;0.20;64.23;99328.91;5152669;27;8857;-74
2023/12/03 03:46:34;;;;;;;;;28.25;23.00;;;;;0.35;64.02;99321.41;5152003;27;8829;-73
2023/12/03 03:49:02;;;;;;;;;26.00;24.25;;;;;-0.08;65.13;99341.31;5116224;27;8895;-72
2023/12/03 03:51:33;;;;;;;;;25.75;24.50;;;;;-0.06;64.92;99337.06;5152199;27;8964;-72
2023/12/03 03:54:02;;;;;;;;;29.40;22.20;;;;;-0.34;65.76;99359.75;5133440;27;8841;-72
2023/12/03 03:56:31;;;;;;;;;31.00;24.00;;;;;-0.36;65.68;99350.25;5152065;27;9589;-73
2023/12/03 03:59:00;;;;;;;;;22.25;20.25;;;;;-0.56;66.19;99344.66;5151675;27;8883;-72
2023/12/03 04:01:30;;;;;;;;;27.75;20.00;;;;;-0.92;66.98;99350.78;5132888;27;8829;-72
2023/12/03 04:03:59;;;;;;;;;20.25;20.25;;;;;-0.58;65.51;99349.81;5115013;27;8885;-74
2023/12/03 04:06:28;;;;;;;;;23.50;23.50;;;;;-0.61;65.28;99354.91;5151908;27;8845;-73
2023/12/03 04:08:59;;;;;;;;;20.25;17.75;;;;;-0.87;66.30;99364.66;5151836;27;8853;-73
2023/12/03 04:11:28;;;;;;;;;22.25;20.50;;;;;-0.98;67.12;99372.16;5133565;27;8851;-72
2023/12/03 04:13:56;;;;;;;;;24.25;22.00;;;;;-1.14;67.54;99377.81;5151562;27;8857;-72
2023/12/03 04:16:25;;;;;;;;;22.25;22.25;;;;;-1.06;67.48;99376.28;5133330;27;9590;-71
2023/12/03 04:18:54;;;;;;;;;18.50;17.00;;;;;-1.39;68.62;99376.34;5151601;27;8869;-73
2023/12/03 04:21:24;;;;;;;;;19.75;18.00;;;;;-1.28;67.96;99385.19;5151940;27;8865;-72
2023/12/03 04:23:52;;;;;;;;;26.50;24.50;;;;;-1.21;68.39;99381.06;5151693;27;8828;-73
2023/12/03 04:26:23;;;;;;;;;19.00;18.00;;;;;-1.01;67.67;99385.00;5094934;27;8829;-74
2023/12/03 04:28:52;;;;;;;;;22.25;20.50;;;;;-0.86;66.92;99392.22;5130625;27;8892;-73
2023/12/03 04:31:23;;;;;;;;;26.25;24.00;;;;;-1.15;67.85;99394.13;5130343;27;9583;-72
2023/12/03 04:33:53;;;;;;;;;19.00;18.00;;;;;-1.31;68.12;99406.63;5130283;27;8833;-72
2023/12/03 04:36:23;;;;;;;;;25.25;22.50;;;;;-1.10;68.08;99389.94;5077589;27;8853;-73
2023/12/03 04:38:53;;;;;;;;;25.75;22.00;;;;;-1.21;68.32;99404.28;5077609;27;8858;-73
2023/12/03 04:41:23;;;;;;;;;21.75;20.75;;;;;-1.27;68.18;99409.31;5130770;27;8844;-74
2023/12/03 04:43:53;;;;;;;;;20.50;19.00;;;;;-1.50;69.82;99413.03;5112203;27;8864;-72
2023/12/03 04:46:22;;;;;;;;;22.75;16.00;;;;;-1.51;69.03;99433.63;5130563;27;8960;-72
2023/12/03 04:48:51;;;;;;;;;23.00;22.00;;;;;-1.68;70.12;99428.88;5130243;27;8857;-73
2023/12/03 04:51:20;;;;;;;;;25.25;23.75;;;;;-1.77;70.77;99426.09;5095271;27;8875;-72
2023/12/03 04:53:49;;;;;;;;;28.50;25.75;;;;;-1.82;71.17;99427.66;5130257;27;8837;-72
2023/12/03 04:56:18;;;;;;;;;23.50;21.25;;;;;-1.61;70.15;99435.09;5130018;27;8837;-72
2023/12/03 04:58:49;;;;;;;;;24.50;21.75;;;;;-1.44;69.40;99451.00;5144382;27;8845;-73
2023/12/03 05:01:18;;;;;;;;;22.75;22.50;;;;;-1.62;70.34;99447.94;5150912;27;8941;-72
2023/12/03 05:03:47;;;;;;;;;24.75;20.75;;;;;-1.58;70.20;99452.31;5132511;27;8847;-72
2023/12/03 05:06:16;;;;;;;;;26.25;22.00;;;;;-1.63;70.62;99457.38;5150648;27;8952;-73
2023/12/03 05:08:45;;;;;;;;;30.00;26.00;;;;;-1.77;70.74;99462.16;5150665;27;9606;-73
2023/12/03 05:11:14;;;;;;;;;18.50;17.25;;;;;-1.77;71.03;99467.31;5114220;27;8845;-73
2023/12/03 05:13:43;;;;;;;;;27.75;22.50;;;;;-1.60;70.04;99475.47;5131976;27;8928;-73
2023/12/03 05:16:13;;;;;;;;;29.00;24.75;;;;;-1.73;70.24;99488.88;5150435;27;8837;-72
2023/12/03 05:18:42;;;;;;;;;17.75;16.25;;;;;-1.79;70.37;99492.13;5150326;27;9575;-72
2023/12/03 05:21:11;;;;;;;;;30.25;25.50;;;;;-1.57;69.55;99480.72;5150291;27;8876;-73
2023/12/03 05:23:41;;;;;;;;;21.00;18.75;;;;;-1.76;70.56;99499.09;5150159;27;8837;-72
2023/12/03 05:26:09;;;;;;;;;21.75;18.25;;;;;-1.32;69.38;99505.44;5150325;27;8841;-73
2023/12/03 05:28:38;;;;;;;;;24.50;24.00;;;;;-1.16;67.73;99516.19;5150316;27;8852;-73
2023/12/03 05:31:07;;;;;;;;;42.00;36.75;;;;;-0.98;67.23;99528.66;5150379;27;8845;-73
2023/12/03 05:33:38;;;;;;;;;23.25;20.00;;;;;-1.15;67.43;99534.25;5130712;27;8885;-73
2023/12/03 05:36:08;;;;;;;;;24.50;23.25;;;;;-1.32;68.06;99530.38;5150126;27;8841;-70
2023/12/03 05:38:38;;;;;;;;;42.25;39.50;;;;;-1.36;68.91;99533.72;5149681;27;8921;-72
2023/12/03 05:41:08;;;;;;;;;24.25;19.75;;;;;-1.31;68.01;99539.88;5131364;27;8848;-76
2023/12/03 05:43:39;;;;;;;;;18.00;17.75;;;;;-1.74;68.98;99549.84;5150027;27;8917;-72
2023/12/03 05:46:08;;;;;;;;;20.50;18.00;;;;;-1.82;69.47;99561.66;5149342;27;8893;-73
2023/12/03 05:48:39;;;;;;;;;23.75;23.00;;;;;-1.87;70.09;99558.91;5131253;27;8875;-72
2023/12/03 05:51:11;;;;;;;;;19.00;18.25;;;;;-1.79;69.47;99559.13;5131006;27;9610;-72
2023/12/03 05:53:40;;;;;;;;;24.50;22.25;;;;;-1.88;69.97;99569.19;5150090;27;8845;-73
2023/12/03 05:56:10;;;;;;;;;22.75;20.50;;;;;-2.24;70.27;99559.53;5080732;27;8837;-73
2023/12/03 05:58:39;;;;;;;;;20.50;15.25;;;;;-2.25;70.10;99565.50;5149673;27;8849;-73
2023/12/03 06:01:08;;;;;;;;;20.00;18.00;;;;;-2.01;69.80;99564.50;5149654;27;8845;-72
2023/12/03 06:03:38;;;;;;;;;23.25;20.50;;;;;-1.95;69.94;99568.13;5149903;27;8841;-73
2023/12/03 06:06:09;;;;;;;;;14.25;13.75;;;;;-1.88;69.72;99575.22;5149841;27;8841;-73
2023/12/03 06:08:38;;;;;;;;;19.00;14.25;;;;;-2.10;69.26;99572.81;5131228;27;8855;-73
2023/12/03 06:11:07;;;;;;;;;27.00;18.25;;;;;-2.04;70.10;99579.88;5149730;27;8837;-72
2023/12/03 06:13:36;;;;;;;;;25.50;19.25;;;;;-2.03;69.95;99581.59;5149510;27;8840;-73
2023/12/03 06:16:06;;;;;;;;;23.50;21.00;;;;;-2.11;69.40;99589.09;5131365;27;8852;-73
2023/12/03 06:18:36;;;;;;;;;29.00;25.50;;;;;-2.09;69.17;99611.50;5149735;27;8871;-72
2023/12/03 06:21:08;;;;;;;;;22.25;20.75;;;;;-2.13;69.47;99616.50;5149644;27;8937;-75
2023/12/03 06:23:37;;;;;;;;;30.00;26.25;;;;;-1.97;68.57;99630.75;5132976;27;8941;-74
2023/12/03 06:26:07;;;;;;;;;33.25;28.25;;;;;-1.98;68.30;99626.41;5134942;27;8963;-73
2023/12/03 06:28:36;;;;;;;;;24.75;21.25;;;;;-1.93;68.00;99628.28;5154410;27;8840;-72
2023/12/03 06:31:06;;;;;;;;;25.75;24.75;;;;;-1.85;67.26;99638.84;5153795;27;9726;-73
2023/12/03 06:33:35;;;;;;;;;23.75;21.50;;;;;-1.71;66.97;99641.84;5134909;27;8862;-73
2023/12/03 06:36:08;;;;;;;;;27.25;23.50;;;;;-1.68;67.15;99650.53;5153819;27;8847;-73
2023/12/03 06:38:37;;;;;;;;;26.00;19.00;;;;;-1.58;67.23;99643.06;5117084;27;8843;-72
2023/12/03 06:41:06;;;;;;;;;22.25;20.25;;;;;-1.77;67.71;99660.56;5134709;27;8859;-72
2023/12/03 06:43:35;;;;;;;;;22.50;18.75;;;;;-1.88;67.70;99660.25;5117337;27;8863;-71
2023/12/03 06:46:04;;;;;;;;;26.50;23.25;;;;;-2.11;67.23;99662.09;5100823;27;8939;-73
2023/12/03 06:48:33;;;;;;;;;21.75;20.00;;;;;-2.07;67.64;99655.34;5153551;27;8835;-72
2023/12/03 06:51:02;;;;;;;;;14.25;13.25;;;;;-1.82;66.79;99671.56;5153325;27;8873;-72
2023/12/03 06:53:32;;;;;;;;;35.00;28.25;;;;;-2.14;67.88;99677.44;5154349;27;8821;-72
2023/12/03 06:56:01;;;;;;;;;22.75;21.50;;;;;-2.13;67.33;99686.94;5153664;27;9661;-71
2023/12/03 06:58:30;;;;;;;;;26.00;23.25;;;;;-1.79;66.11;99697.41;5108948;28;8863;-73
2023/12/03 07:00:59;;;;;;;;;25.75;23.25;;;;;-1.89;66.67;99703.97;5109140;28;8856;-73
2023/12/03 07:03:28;;;;;;;;;19.00;19.00;;;;;-1.98;66.56;99712.28;5109135;28;8824;-74
2023/12/03 07:05:59;;;;;;;;;32.50;29.00;;;;;-1.97;66.82;99708.91;5109317;28;8836;-73
2023/12/03 07:08:29;;;;;;;;;29.50;26.50;;;;;-1.77;66.03;99721.53;5109381;28;8840;-73
2023/12/03 07:10:59;;;;;;;;;29.00;26.50;;;;;-1.87;65.83;99717.78;5109253;28;8860;-72
2023/12/03 07:13:28;;;;;;;;;34.25;26.50;;;;;-1.66;64.56;99719.28;5109337;28;8874;-74
2023/12/03 07:15:57;;;;;;;;;33.50;24.25;;;;;-1.66;64.62;99724.44;5071830;28;8846;-73
2023/12/03 07:18:26;;;;;;;;;27.25;24.50;;;;;-2.10;65.55;99722.19;5088811;28;9632;-73
2023/12/03 07:20:55;;;;;;;;;23.00;22.00;;;;;-1.98;65.54;99724.28;5088246;28;8887;-73
2023/12/03 07:23:24;;;;;;;;;28.75;26.00;;;;;-1.66;64.84;99732.19;5088150;28;8966;-72
2023/12/03 07:25:53;;;;;;;;;30.25;26.75;;;;;-1.57;64.63;99717.88;5038591;28;8854;-73
2023/12/03 07:28:23;;;;;;;;;19.75;15.50;;;;;-1.79;65.61;99729.19;5088557;28;8838;-74
2023/12/03 07:30:52;;;;;;;;;22.50;19.50;;;;;-2.05;65.08;99725.81;5107821;28;8985;-73
2023/12/03 07:33:21;;;;;;;;;17.75;17.00;;;;;-2.14;64.75;99734.09;5091634;28;9072;-72
2023/12/03 07:35:50;;;;;;;;;21.50;21.25;;;;;-1.94;64.84;99731.28;5056822;28;9000;-71
2023/12/03 07:38:19;;;;;;;;;17.60;13.80;;;;;-2.30;65.08;99740.44;5108502;28;8974;-73
2023/12/03 07:40:48;;;;;;;;;22.00;18.00;;;;;-2.10;65.65;99741.09;5107789;28;8852;-73
2023/12/03 07:43:17;;;;;;;;;19.50;17.00;;;;;-2.11;65.45;99739.34;5091238;28;8863;-74
2023/12/03 07:45:47;;;;;;;;;21.75;19.00;;;;;-2.08;65.11;99742.00;5091241;28;8847;-74
2023/12/03 07:48:17;;;;;;;;;22.00;16.50;;;;;-2.04;65.84;99750.72;5149635;27;8864;-73
2023/12/03 07:50:46;;;;;;;;;17.50;17.50;;;;;-1.97;65.69;99760.41;5151883;27;8869;-72
2023/12/03 07:53:15;;;;;;;;;23.75;17.25;;;;;-1.90;65.36;99764.06;5065538;27;9610;-73
2023/12/03 07:55:44;;;;;;;;;16.75;16.50;;;;;-1.70;65.08;99757.84;5151818;27;8853;-73
2023/12/03 07:58:13;;;;;;;;;21.50;18.75;;;;;-1.80;64.58;99763.53;5152074;27;9566;-73
2023/12/03 08:00:42;;;;;;;;;24.50;18.75;;;;;-1.78;64.30;99766.19;5116417;27;9022;-72
2023/12/03 08:03:12;;;;;;;;;19.60;18.80;;;;;-1.92;64.08;99770.84;5151895;27;8864;-73
2023/12/03 08:05:42;;;;;;;;;25.50;18.25;;;;;-2.11;63.91;99792.53;5151798;27;8845;-73
2023/12/03 08:08:11;;;;;;;;;19.25;17.75;;;;;-2.00;63.21;99806.66;5116106;27;8837;-72
2023/12/03 08:10:40;;;;;;;;;14.25;10.25;;;;;-2.03;62.22;99804.00;5151825;27;8856;-72
2023/12/03 08:13:09;;;;;;;;;19.00;16.60;;;;;-1.82;61.79;99808.13;5133298;27;8821;-73
2023/12/03 08:15:38;;;;;;;;;3.00;2.50;;;;;-1.61;61.45;99811.41;5133320;27;8856;-74
2023/12/03 08:18:07;;;;;;;;;18.20;15.60;;;;;-1.42;61.19;99814.59;5151259;27;8857;-73
2023/12/03 08:20:37;;;;;;;;;19.40;17.40;;;;;-1.57;62.60;99808.09;5132745;27;8903;-73
2023/12/03 08:23:06;;;;;;;;;19.75;16.00;;;;;-1.57;62.67;99817.53;5151643;27;8832;-73
2023/12/03 08:25:35;;;;;;;;;18.00;18.00;;;;;-1.96;64.68;99829.13;5151548;27;8833;-75
2023/12/03 08:28:05;;;;;;;;;20.40;18.80;;;;;-1.94;62.33;99821.47;5115420;27;8865;-75
2023/12/03 08:30:34;;;;;;;;;17.25;17.25;;;;;-1.89;63.69;99832.81;5132867;27;10111;-74
2023/12/03 08:33:03;;;;;;;;;19.25;17.50;;;;;-1.87;64.25;99829.44;5132922;27;8829;-75
2023/12/03 08:35:32;;;;;;;;;20.00;18.00;;;;;-1.66;61.90;99850.75;5098716;27;8852;-74
2023/12/03 08:38:03;;;;;;;;;17.00;16.75;;;;;-1.63;62.63;99853.44;5151514;27;8837;-74
2023/12/03 08:40:32;;;;;;;;;20.75;15.75;;;;;-1.80;61.11;99866.63;5151744;27;8925;-74
2023/12/03 08:43:01;;;;;;;;;10.20;8.80;;;;;-1.60;60.14;99868.97;5151181;27;8817;-75
2023/12/03 08:45:30;;;;;;;;;8.80;8.80;;;;;-1.83;59.29;99858.78;5151113;27;8874;-73
2023/12/03 08:48:00;;;;;;;;;17.00;16.40;;;;;-1.88;58.97;99853.47;5151045;27;8848;-74
2023/12/03 08:50:31;;;;;;;;;18.00;15.80;;;;;-2.07;58.14;99882.00;5132270;27;8868;-73
2023/12/03 08:53:03;;;;;;;;;15.80;12.20;;;;;-1.98;58.21;99876.28;5115376;27;8845;-75
2023/12/03 08:55:32;;;;;;;;;15.60;14.80;;;;;-1.85;57.12;99870.72;5098652;27;8829;-74
2023/12/03 08:58:02;;;;;;;;;14.00;14.00;;;;;-1.91;57.36;99880.84;5150299;27;8856;-75
2023/12/03 09:00:31;;;;;;;;;12.00;10.80;;;;;-1.94;57.04;99880.72;5148839;27;8925;-73
2023/12/03 09:03:00;;;;;;;;;10.40;10.00;;;;;-1.97;56.79;99878.06;5130174;27;8875;-74
2023/12/03 09:05:30;;;;;;;;;8.80;8.00;;;;;-2.19;56.15;99884.13;5130165;27;8841;-75
2023/12/03 09:07:59;;;;;;;;;7.00;5.00;;;;;-2.40;55.95;99872.22;5111609;27;8960;-75
2023/12/03 09:10:29;;;;;;;;;13.75;13.75;;;;;-2.18;55.14;99880.75;5111445;27;8972;-74
2023/12/03 09:12:58;;;;;;;;;11.50;11.50;;;;;-2.16;52.56;99892.84;5111490;27;8937;-75
2023/12/03 09:15:27;;;;;;;;;11.00;10.00;;;;;-2.33;53.70;99893.94;5107028;28;8886;-75
2023/12/03 09:17:57;;;;;;;;;11.20;10.60;;;;;-1.77;52.09;99894.19;5106836;28;8820;-76
2023/12/03 09:20:26;;;;;;;;;14.20;11.80;;;;;-1.74;51.36;99905.47;5089775;28;8860;-76
2023/12/03 09:22:55;;;;;;;;;13.80;10.60;;;;;-1.65;51.75;99904.94;5089693;28;8852;-76
2023/12/03 09:25:24;;;;;;;;;16.20;14.60;;;;;-1.61;52.35;99899.03;5106909;28;8844;-77
2023/12/03 09:27:55;;;;;;;;;15.75;15.75;;;;;-1.88;52.53;99920.47;5090081;28;8812;-72
2023/12/03 09:30:23;;;;;;;;;19.20;17.40;;;;;-1.94;53.90;99916.78;5089707;28;8878;-74
2023/12/03 09:32:53;;;;;;;;;21.50;20.00;;;;;-2.04;54.20;99925.88;5072678;28;8945;-78
2023/12/03 09:35:21;;;;;;;;;39.75;36.75;;;;;-1.90;53.94;99922.13;5089681;28;8885;-76
2023/12/03 09:37:50;;;;;;;;;18.25;17.75;;;;;-2.01;54.51;99925.13;5073203;28;8832;-76
2023/12/03 09:40:19;;;;;;;;;13.00;12.20;;;;;-2.00;54.22;99917.44;5106307;28;8851;-74
2023/12/03 09:42:50;;;;;;;;;13.80;13.80;;;;;-1.99;53.03;99934.66;5106224;28;8863;-75
2023/12/03 09:45:26;;;;;;;;;15.80;12.00;;;;;-2.04;52.31;99927.59;5040324;28;9073;-73
2023/12/03 09:48:00;;;;;;;;;17.50;15.25;;;;;-1.89;51.78;99926.44;5106391;28;8855;-75
2023/12/03 09:50:31;;;;;;;;;16.50;15.25;;;;;-1.99;51.34;99932.09;5106050;28;8990;-75
2023/12/03 09:53:02;;;;;;;;;16.60;12.40;;;;;-1.78;51.17;99931.09;5125096;27;9582;-76
2023/12/03 09:55:32;;;;;;;;;10.00;8.40;;;;;-1.62;51.53;99925.63;5080854;27;8833;-76
2023/12/03 09:58:03;;;;;;;;;17.40;15.60;;;;;-1.56;51.21;99941.34;5069778;28;8853;-78
2023/12/03 10:00:34;;;;;;;;;16.60;16.60;;;;;-1.59;51.63;99928.31;5090058;28;9647;-74
2023/12/03 10:03:04;;;;;;;;;18.00;14.75;;;;;-1.87;52.75;99942.81;5090318;28;8838;-75
2023/12/03 10:05:33;;;;;;;;;20.75;18.00;;;;;-2.12;53.05;99950.50;5073503;28;8842;-76
2023/12/03 10:08:04;;;;;;;;;15.60;15.60;;;;;-1.94;53.09;99945.13;5073330;28;8842;-73
2023/12/03 10:10:36;;;;;;;;;19.25;17.75;;;;;-1.71;53.17;99930.50;5089574;28;8919;-74
2023/12/03 10:13:06;;;;;;;;;18.00;15.60;;;;;-1.60;51.10;99936.88;5022926;28;8943;-73
2023/12/03 10:15:37;;;;;;;;;16.00;16.00;;;;;-1.41;49.78;99929.78;5089742;28;8875;-74
2023/12/03 10:18:06;;;;;;;;;12.80;12.20;;;;;-1.42;50.11;99936.63;5089739;28;8955;-73
2023/12/03 10:20:36;;;;;;;;;21.20;20.00;;;;;-1.80;51.25;99938.78;5072601;28;8908;-75
2023/12/03 10:23:13;;;;;;;;;19.40;17.60;;;;;-1.54;51.11;99934.53;5090125;28;8854;-74
2023/12/03 10:25:43;;;;;;;;;17.20;12.80;;;;;-0.99;50.14;99934.59;5074175;28;8838;-72
2023/12/03 10:28:12;;;;;;;;;17.60;17.00;;;;;-1.37;50.56;99940.25;5055874;28;8830;-75
2023/12/03 10:30:42;;;;;;;;;18.20;18.20;;;;;-1.31;50.59;99931.84;5089366;28;8973;-75
2023/12/03 10:33:12;;;;;;;;;13.75;13.75;;;;;-1.34;51.34;99932.59;5039932;28;8881;-74
2023/12/03 10:35:41;;;;;;;;;18.20;16.00;;;;;-1.36;51.65;99935.97;5119295;27;8861;-75
2023/12/03 10:38:10;;;;;;;;;18.60;17.00;;;;;-1.46;52.64;99936.50;5153272;27;8845;-74
2023/12/03 10:40:39;;;;;;;;;15.00;15.00;;;;;-1.51;52.74;99944.06;5100195;27;8841;-74
2023/12/03 10:43:08;;;;;;;;;19.75;18.25;;;;;-1.46;52.82;99939.94;5153564;27;8833;-74
2023/12/03 10:45:37;;;;;;;;;14.20;13.60;;;;;-1.32;52.12;99933.53;5117592;27;8861;-75
2023/12/03 10:48:09;;;;;;;;;13.60;13.60;;;;;-1.27;51.37;99938.84;5153295;27;9642;-74
2023/12/03 10:50:43;;;;;;;;;14.60;13.20;;;;;-1.35;50.64;99930.00;5134559;27;8853;-75
2023/12/03 10:53:16;;;;;;;;;20.00;17.00;;;;;-1.06;49.54;99933.53;5153143;27;8909;-77
2023/12/03 10:55:44;;;;;;;;;16.80;16.40;;;;;-0.98;49.36;99936.34;5116534;27;8857;-74
2023/12/03 10:58:19;;;;;;;;;27.00;23.50;;;;;-0.66;48.75;99923.56;5135282;27;8837;-76
2023/12/03 11:00:57;;;;;;;;;22.20;17.80;;;;;-1.13;50.39;99936.72;5152924;27;8841;-74
2023/12/03 11:03:36;;;;;;;;;16.60;15.00;;;;;-1.45;50.97;99939.09;5134427;27;8932;-74
2023/12/03 11:06:09;;;;;;;;;20.00;18.40;;;;;-1.30;51.00;99939.66;5100557;27;8898;-73
2023/12/03 11:08:40;;;;;;;;;13.80;13.80;;;;;-1.49;51.93;99945.84;5117145;27;8825;-73
2023/12/03 11:11:11;;;;;;;;;17.20;15.40;;;;;-1.34;52.07;99939.47;5134613;27;8871;-74
2023/12/03 11:13:42;;;;;;;;;19.50;19.50;;;;;-1.61;51.88;99934.25;5152593;27;8869;-73
2023/12/03 11:16:16;;;;;;;;;18.25;16.25;;;;;-1.55;52.54;99944.78;5134408;27;8849;-75
2023/12/03 11:18:52;;;;;;;;;18.25;15.50;;;;;-1.54;53.21;99937.09;5153075;27;8965;-75
2023/12/03 11:21:33;;;;;;;;;12.75;12.75;;;;;-1.84;53.82;99949.78;5152723;27;8852;-73
2023/12/03 11:24:20;;;;;;;;;15.20;14.60;;;;;-1.90;53.66;99941.81;5153155;27;8860;-75
2023/12/03 11:26:49;;;;;;;;;12.40;12.40;;;;;-2.04;54.02;99959.38;5116239;27;8833;-71
2023/12/03 11:29:18;;;;;;;;;29.00;22.00;;;;;-1.92;54.38;99964.09;5099920;27;8836;-72
2023/12/03 11:31:47;;;;;;;;;20.50;19.75;;;;;-1.85;54.47;99968.63;5133973;27;8841;-73
2023/12/03 11:34:17;;;;;;;;;17.50;17.25;;;;;-1.72;54.45;99969.97;5133448;27;8833;-73
2023/12/03 11:36:48;;;;;;;;;19.00;17.00;;;;;-1.83;55.03;99969.56;5152121;27;8933;-72
2023/12/03 11:39:24;;;;;;;;;25.50;24.50;;;;;-1.44;53.73;99970.94;5152149;27;8848;-73